Time;durP1;ratioP1;P1;durP2;ratioP2;P2;SDS_P1;SDS_P2;PMS_P1;PMS_P2;Temp;Humidity;BMP_temperature;BMP_pressure;BME280_temperature;BME280_humidity;BME280_pressure;Samples;Min_cycle;Max_cycle;Signal;HPM_P1;HPM_P2
2022/10/26 00:04:45;;;;;;;7.90;2.90;;;;;;;13.45;72.60;100364.00;10225348;28;20048;-59
2022/10/26 00:09:46;;;;;;;12.93;3.42;;;;;;;13.49;72.37;100358.00;10205437;28;20058;-60
2022/10/26 00:14:48;;;;;;;4.65;2.50;;;;;;;13.62;72.41;100357.28;10212932;28;20139;-59
2022/10/26 00:19:49;;;;;;;3.78;2.33;;;;;;;13.68;72.12;100351.13;10220782;29;20300;-59
2022/10/26 00:24:51;;;;;;;5.82;3.13;;;;;;;13.71;72.13;100360.69;10208661;28;20104;-59
2022/10/26 00:29:52;;;;;;;8.57;3.17;;;;;;;13.77;72.05;100357.19;10210091;28;20385;-59
2022/10/26 00:34:54;;;;;;;6.38;2.83;;;;;;;13.81;72.15;100350.34;10206566;29;20601;-59
2022/10/26 00:39:55;;;;;;;6.88;2.78;;;;;;;13.83;72.10;100358.28;10206388;28;20051;-59
2022/10/26 00:45:18;;;;;;;9.15;2.58;;;;;;;13.89;72.00;100365.59;10214281;28;20070;-59
2022/10/26 00:50:25;;;;;;;8.02;2.85;;;;;;;13.94;71.87;100365.00;10196603;28;20060;-60
2022/10/26 00:55:34;;;;;;;6.65;2.35;;;;;;;13.96;71.84;100361.06;10213238;28;20046;-59
2022/10/26 01:00:35;;;;;;;8.63;2.58;;;;;;;14.03;71.58;100358.41;10210367;28;20126;-59
2022/10/26 01:05:41;;;;;;;12.20;3.90;;;;;;;14.04;71.75;100355.50;10204800;28;20048;-59
2022/10/26 01:10:43;;;;;;;6.70;3.03;;;;;;;14.08;71.64;100351.38;10203995;28;20079;-59
2022/10/26 01:15:57;;;;;;;6.18;3.08;;;;;;;14.09;71.58;100346.78;10211511;28;20079;-60
2022/10/26 01:21:26;;;;;;;6.55;2.58;;;;;;;14.09;71.81;100336.81;10198152;28;20145;-59
2022/10/26 01:26:45;;;;;;;5.53;2.83;;;;;;;14.09;71.61;100339.50;10203018;28;20061;-59
2022/10/26 01:32:02;;;;;;;6.57;2.53;;;;;;;13.92;72.20;100340.88;10208723;28;20570;-59
2022/10/26 01:37:11;;;;;;;10.00;4.17;;;;;;;13.89;72.10;100334.00;10211602;28;20434;-59
2022/10/26 01:42:16;;;;;;;12.77;3.70;;;;;;;13.98;72.27;100337.38;10202788;28;20139;-59
2022/10/26 01:47:22;;;;;;;9.60;3.63;;;;;;;13.95;72.16;100332.38;10211958;28;20126;-59
2022/10/26 01:52:24;;;;;;;8.75;3.95;;;;;;;14.00;72.30;100329.06;10207690;29;20570;-59
2022/10/26 01:57:25;;;;;;;8.35;3.50;;;;;;;14.09;72.04;100322.47;10214265;28;20077;-59
2022/10/26 02:02:40;;;;;;;10.50;3.38;;;;;;;14.10;72.27;100324.16;10211694;28;20043;-59
2022/10/26 02:08:06;;;;;;;8.32;3.90;;;;;;;14.17;71.96;100318.75;10216701;28;20048;-60
2022/10/26 02:13:14;;;;;;;8.98;3.25;;;;;;;14.20;72.14;100313.81;10199548;29;20039;-59
2022/10/26 02:18:37;;;;;;;6.20;2.53;;;;;;;14.21;71.95;100322.72;10204466;28;20508;-59
2022/10/26 02:23:42;;;;;;;8.00;2.25;;;;;;;14.19;72.05;100324.81;10212743;29;20541;-59
2022/10/26 02:28:52;;;;;;;4.88;2.30;;;;;;;14.18;71.89;100323.97;10206843;28;20135;-59
2022/10/26 02:34:00;;;;;;;6.82;2.30;;;;;;;14.23;71.89;100309.84;10206518;28;20484;-59
2022/10/26 02:39:03;;;;;;;;;;;;;;;14.18;72.07;100307.75;10208629;28;20059;-60
2022/10/26 02:44:13;;;;;;;6.45;3.15;;;;;;;14.19;71.73;100303.19;10212308;28;19957;-59
2022/10/26 02:49:15;;;;;;;5.97;2.40;;;;;;;14.01;72.44;100307.25;10207054;28;20038;-59
2022/10/26 02:54:31;;;;;;;7.18;3.80;;;;;;;14.07;72.53;100286.69;10201792;28;20575;-59
2022/10/26 02:59:36;;;;;;;5.20;2.25;;;;;;;14.14;72.42;100286.72;10208731;28;20392;-60
2022/10/26 03:04:37;;;;;;;7.05;2.38;;;;;;;14.12;72.56;100291.50;10225073;28;20133;-60
2022/10/26 03:09:38;;;;;;;8.95;2.67;;;;;;;14.09;73.12;100288.16;10203353;28;20122;-59
2022/10/26 03:14:40;;;;;;;3.33;2.70;;;;;;;14.15;72.91;100293.81;10196152;28;20138;-60
2022/10/26 03:19:41;;;;;;;9.75;3.50;;;;;;;14.19;72.85;100295.88;10199907;28;20121;-60
2022/10/26 03:24:43;;;;;;;10.07;4.05;;;;;;;14.02;73.52;100295.41;10205504;29;20056;-60
2022/10/26 03:29:44;;;;;;;8.88;3.13;;;;;;;14.02;73.46;100303.53;10205886;28;20131;-60
2022/10/26 03:34:45;;;;;;;8.23;3.15;;;;;;;14.06;73.49;100293.97;10203040;29;20058;-60
2022/10/26 03:39:47;;;;;;;6.50;2.47;;;;;;;13.91;74.36;100295.13;10200975;28;20039;-59
2022/10/26 03:44:48;;;;;;;6.15;2.72;;;;;;;14.00;74.04;100297.47;10221202;28;20494;-59
2022/10/26 03:49:50;;;;;;;11.18;2.55;;;;;;;14.15;73.75;100310.03;10223109;29;20130;-60
2022/10/26 03:54:51;;;;;;;9.07;2.15;;;;;;;14.24;73.65;100306.13;10215265;28;20131;-59
2022/10/26 03:59:52;;;;;;;6.72;2.13;;;;;;;14.32;73.43;100297.84;10216218;28;20138;-60
2022/10/26 04:04:54;;;;;;;5.93;3.25;;;;;;;14.38;73.41;100301.59;10215749;29;20046;-61
2022/10/26 04:09:55;;;;;;;8.93;2.45;;;;;;;14.37;73.91;100286.41;10218268;28;20075;-61
2022/10/26 04:14:57;;;;;;;6.13;2.83;;;;;;;14.36;73.70;100288.28;10213515;28;20498;-60
2022/10/26 04:19:58;;;;;;;11.07;3.55;;;;;;;14.37;73.63;100284.53;10227680;28;20516;-61
2022/10/26 04:25:00;;;;;;;8.50;2.88;;;;;;;14.39;73.56;100279.75;10215522;28;20051;-60
2022/10/26 04:30:01;;;;;;;9.63;3.00;;;;;;;14.41;73.56;100268.72;10219087;28;20066;-60
2022/10/26 04:35:02;;;;;;;9.70;2.88;;;;;;;14.29;73.80;100296.34;10215764;28;20079;-60
2022/10/26 04:40:04;;;;;;;7.38;3.85;;;;;;;14.22;74.02;100306.31;10208618;29;20070;-60
2022/10/26 04:45:12;;;;;;;6.38;3.03;;;;;;;14.28;73.93;100296.56;10210731;28;20080;-61
2022/10/26 04:50:14;;;;;;;7.43;2.75;;;;;;;14.32;73.62;100305.13;10214887;28;20047;-61
2022/10/26 04:55:15;;;;;;;4.88;2.83;;;;;;;14.33;73.74;100301.38;10213592;29;20058;-60
2022/10/26 05:00:17;;;;;;;5.70;2.70;;;;;;;14.36;73.62;100296.38;10212445;28;20071;-61
2022/10/26 05:05:18;;;;;;;5.28;3.58;;;;;;;14.38;73.47;100275.38;10218007;28;20406;-60
2022/10/26 05:10:19;;;;;;;10.50;3.40;;;;;;;14.39;73.52;100281.63;10210991;28;20135;-60
2022/10/26 05:15:21;;;;;;;5.72;2.70;;;;;;;14.31;73.59;100266.41;10206676;28;20547;-60
2022/10/26 05:20:28;;;;;;;9.07;4.10;;;;;;;14.28;73.51;100272.25;10209597;28;20529;-60
2022/10/26 05:25:32;;;;;;;9.57;3.50;;;;;;;14.24;73.59;100254.75;10208941;28;20050;-60
2022/10/26 05:30:34;;;;;;;3.45;2.72;;;;;;;14.23;73.69;100258.47;10207853;28;20443;-61
2022/10/26 05:35:36;;;;;;;6.03;3.67;;;;;;;14.02;74.32;100286.44;10214584;28;20051;-60
2022/10/26 05:40:37;;;;;;;13.20;3.78;;;;;;;14.07;74.02;100294.81;10208703;28;20050;-60
2022/10/26 05:45:39;;;;;;;11.77;2.55;;;;;;;13.94;74.60;100287.47;10212153;28;20134;-60
2022/10/26 05:50:40;;;;;;;7.70;3.25;;;;;;;14.03;74.39;100283.56;10211567;28;20974;-60
2022/10/26 05:55:42;;;;;;;7.40;3.08;;;;;;;13.91;74.78;100303.25;10202138;28;20043;-59
2022/10/26 06:01:22;;;;;;;6.07;4.10;;;;;;;14.07;74.35;100311.84;10213222;28;20055;-60
2022/10/26 06:06:36;;;;;;;8.90;4.15;;;;;;;14.22;74.20;100311.72;10208024;28;20048;-61
2022/10/26 06:11:38;;;;;;;6.88;3.17;;;;;;;14.30;74.03;100313.44;10202870;28;20040;-61
2022/10/26 06:17:23;;;;;;;7.35;2.97;;;;;;;14.32;73.73;100314.06;10207097;28;20493;-61
2022/10/26 06:23:00;;;;;;;9.98;3.50;;;;;;;14.17;74.11;100313.34;10211425;28;20142;-61
2022/10/26 06:28:20;;;;;;;13.45;3.80;;;;;;;14.24;74.00;100309.66;10202538;28;20053;-61
2022/10/26 06:33:23;;;;;;;7.85;3.55;;;;;;;14.36;73.91;100320.72;10212399;29;20043;-61
2022/10/26 06:38:33;;;;;;;9.60;3.38;;;;;;;14.33;73.94;100336.53;10199673;28;20660;-61
2022/10/26 06:43:34;;;;;;;11.00;4.15;;;;;;;14.29;73.90;100339.59;10210635;28;20045;-62
2022/10/26 06:48:50;;;;;;;10.48;3.17;;;;;;;14.34;74.04;100343.63;10200764;28;20123;-61
2022/10/26 06:54:04;;;;;;;9.25;4.30;;;;;;;14.26;74.53;100361.66;10210208;28;20054;-60
2022/10/26 06:59:12;;;;;;;9.63;4.13;;;;;;;14.40;74.46;100369.84;10204262;28;20075;-61
2022/10/26 07:04:14;;;;;;;6.03;3.72;;;;;;;14.58;74.35;100362.03;10198351;29;20510;-61
2022/10/26 07:09:15;;;;;;;6.70;3.13;;;;;;;14.65;74.14;100389.13;10195948;28;20126;-61
2022/10/26 07:14:16;;;;;;;6.40;2.95;;;;;;;14.62;74.00;100382.25;10211617;28;20126;-61
2022/10/26 07:19:18;;;;;;;6.75;2.67;;;;;;;14.77;73.98;100386.66;10203743;28;20130;-61
2022/10/26 07:24:19;;;;;;;3.60;3.17;;;;;;;14.84;73.92;100382.94;10200096;28;20067;-61
2022/10/26 07:29:22;;;;;;;10.02;3.10;;;;;;;14.94;74.04;100384.44;10201708;28;20048;-61
2022/10/26 07:34:23;;;;;;;6.85;3.00;;;;;;;14.97;73.80;100398.41;10204830;28;20138;-62
2022/10/26 07:39:25;;;;;;;6.50;3.38;;;;;;;15.05;73.50;100398.22;10204345;29;20528;-61
2022/10/26 07:44:26;;;;;;;8.65;3.05;;;;;;;15.13;73.55;100408.03;10202817;28;20624;-61
2022/10/26 07:49:28;;;;;;;5.30;3.08;;;;;;;15.12;73.39;100424.47;10212418;28;20506;-61
2022/10/26 07:54:29;;;;;;;7.63;3.33;;;;;;;15.18;73.34;100431.78;10195606;28;20123;-61
2022/10/26 07:59:30;;;;;;;5.57;3.30;;;;;;;15.30;73.29;100434.72;10213521;28;20079;-61
2022/10/26 08:04:32;;;;;;;7.57;2.83;;;;;;;15.43;73.15;100424.75;10210162;28;20679;-61
2022/10/26 08:09:33;;;;;;;9.70;3.38;;;;;;;15.52;72.93;100425.41;10196919;28;20056;-62
2022/10/26 08:14:34;;;;;;;7.38;4.05;;;;;;;15.59;72.70;100428.09;10195971;28;20044;-61
2022/10/26 08:19:36;;;;;;;6.30;3.13;;;;;;;15.67;72.64;100419.78;10207422;29;20079;-62
2022/10/26 08:24:37;;;;;;;8.55;3.83;;;;;;;15.78;72.49;100427.31;10208248;28;20138;-63
2022/10/26 08:29:39;;;;;;;6.75;3.25;;;;;;;15.86;72.33;100426.28;10205444;29;20043;-62
2022/10/26 08:34:41;;;;;;;7.57;3.65;;;;;;;16.01;71.99;100424.16;10208360;28;20130;-61
2022/10/26 08:39:42;;;;;;;8.93;3.67;;;;;;;16.12;72.01;100435.44;10214246;28;20043;-61
2022/10/26 08:44:50;;;;;;;7.82;3.50;;;;;;;16.19;71.82;100430.81;10216158;28;20088;-61
2022/10/26 08:50:01;;;;;;;10.85;3.45;;;;;;;16.41;71.62;100429.53;10233673;28;20509;-62
2022/10/26 08:55:09;;;;;;;7.20;3.72;;;;;;;16.61;71.24;100431.38;10203072;29;20134;-62
2022/10/26 09:00:16;;;;;;;7.10;3.50;;;;;;;16.75;71.06;100432.97;10207013;29;20051;-61
2022/10/26 09:05:22;;;;;;;4.90;3.40;;;;;;;17.00;70.75;100449.41;10213940;28;20071;-61
2022/10/26 09:11:09;;;;;;;9.67;3.47;;;;;;;17.17;70.81;100446.19;10210119;28;20136;-61
2022/10/26 09:16:19;;;;;;;8.18;3.35;;;;;;;17.28;70.30;100464.53;10139969;28;20570;-62
2022/10/26 09:21:38;;;;;;;8.88;3.45;;;;;;;17.33;69.81;100455.72;10206510;28;20557;-61
2022/10/26 09:27:00;;;;;;;7.95;3.80;;;;;;;17.44;69.74;100455.84;10206303;28;20167;-61
2022/10/26 09:32:03;;;;;;;9.30;2.83;;;;;;;17.56;69.25;100456.00;10214117;28;20114;-62
2022/10/26 09:37:19;;;;;;;9.77;3.38;;;;;;;17.56;69.16;100466.03;10214397;29;20105;-62
2022/10/26 09:42:35;;;;;;;10.30;3.40;;;;;;;17.64;68.69;100488.34;10205351;28;20052;-62
2022/10/26 09:47:38;;;;;;;7.63;3.33;;;;;;;17.64;68.74;100485.63;10203286;28;20543;-61
2022/10/26 09:52:39;;;;;;;7.30;3.78;;;;;;;17.64;68.45;100485.63;10210376;28;20126;-62
2022/10/26 09:57:44;;;;;;;12.10;3.13;;;;;;;17.73;68.37;100494.38;10206741;28;20078;-62
2022/10/26 10:02:51;;;;;;;14.63;3.75;;;;;;;17.94;68.29;100492.34;10212546;29;20119;-62
2022/10/26 10:08:23;;;;;;;8.35;3.03;;;;;;;18.00;67.97;100492.28;10219030;28;20734;-62
2022/10/26 10:13:28;;;;;;;7.43;3.03;;;;;;;18.19;67.58;100504.06;10212610;28;20098;-62
2022/10/26 10:18:30;;;;;;;6.25;3.40;;;;;;;18.26;67.37;100497.75;10203121;28;20127;-62
2022/10/26 10:23:35;;;;;;;4.32;2.72;;;;;;;18.40;67.19;100499.28;10214875;28;20138;-61
2022/10/26 10:28:39;;;;;;;6.85;2.63;;;;;;;18.56;66.59;100506.88;10214774;28;20110;-61
2022/10/26 10:33:41;;;;;;;9.73;2.72;;;;;;;18.61;66.61;100507.03;10208322;28;20118;-61
2022/10/26 10:38:44;;;;;;;3.88;1.75;;;;;;;18.81;65.99;100514.19;10202372;29;20056;-62
2022/10/26 10:44:07;;;;;;;7.07;2.45;;;;;;;18.99;65.72;100518.81;10207334;29;20066;-62
2022/10/26 10:49:22;;;;;;;5.72;2.67;;;;;;;19.21;65.38;100533.66;10205606;28;20106;-62
2022/10/26 10:54:33;;;;;;;6.43;1.95;;;;;;;19.33;65.11;100533.69;10206490;28;20051;-63
2022/10/26 10:59:49;;;;;;;8.23;2.60;;;;;;;19.38;64.91;100528.38;10204521;28;20150;-63
2022/10/26 11:05:19;;;;;;;5.87;1.70;;;;;;;19.56;64.60;100527.50;10217109;28;20448;-63
2022/10/26 11:10:35;;;;;;;6.32;1.60;;;;;;;19.97;63.82;100539.53;10209865;28;20047;-63
2022/10/26 11:15:41;;;;;;;7.00;1.40;;;;;;;20.00;63.85;100536.34;10207944;28;20094;-63
2022/10/26 11:20:50;;;;;;;8.70;1.42;;;;;;;20.15;62.92;100538.63;10203118;28;20062;-63
2022/10/26 11:25:58;;;;;;;5.25;1.63;;;;;;;20.07;63.02;100532.69;10202032;28;20548;-63
2022/10/26 11:31:05;;;;;;;6.70;1.45;;;;;;;20.08;63.00;100547.97;10200199;28;20048;-63
2022/10/26 11:36:17;;;;;;;5.22;1.48;;;;;;;19.95;62.83;100538.13;10213612;28;20110;-63
2022/10/26 11:41:30;;;;;;;9.70;1.50;;;;;;;20.03;62.74;100551.41;10198911;28;20122;-63
2022/10/26 11:46:40;;;;;;;6.55;1.80;;;;;;;20.05;62.64;100543.81;10207293;29;20153;-63
2022/10/26 11:52:03;;;;;;;5.38;1.98;;;;;;;20.22;62.71;100552.16;10204367;29;20052;-63
2022/10/26 11:57:04;;;;;;;5.03;1.23;;;;;;;20.30;62.26;100557.28;10210495;28;20164;-63
2022/10/26 12:02:15;;;;;;;5.63;1.77;;;;;;;20.41;62.07;100558.34;10212790;29;20075;-62
2022/10/26 12:07:23;;;;;;;7.07;1.80;;;;;;;20.38;62.06;100569.78;10216668;28;20693;-63
2022/10/26 12:12:37;;;;;;;4.28;2.05;;;;;;;20.51;61.99;100563.22;10211504;28;20052;-60
2022/10/26 12:18:21;;;;;;;7.72;1.80;;;;;;;20.62;62.02;100567.06;10215690;28;20130;-60
2022/10/26 12:24:21;;;;;;;9.00;2.05;;;;;;;20.72;61.89;100570.06;10207196;28;20052;-60
2022/10/26 12:29:25;;;;;;;5.47;1.63;;;;;;;20.76;61.72;100572.06;10202345;28;20127;-60
2022/10/26 12:34:29;;;;;;;8.90;2.95;;;;;;;21.05;61.42;100574.03;10220870;29;20127;-61
2022/10/26 12:39:36;;;;;;;10.43;1.58;;;;;;;21.23;60.92;100573.91;10215910;28;20186;-61
2022/10/26 12:44:47;;;;;;;;;;;;;;;21.13;61.66;100571.78;10205128;28;20075;-60
2022/10/26 12:50:21;;;;;;;3.33;0.85;;;;;;;21.05;61.70;100574.03;10212909;28;19994;-60
2022/10/26 12:55:40;;;;;;;3.17;1.13;;;;;;;21.11;61.16;100573.09;10214639;28;20075;-62
2022/10/26 13:01:07;;;;;;;8.27;1.75;;;;;;;21.12;61.33;100570.13;10208385;28;20450;-62
2022/10/26 13:06:35;;;;;;;4.97;0.90;;;;;;;21.18;61.27;100579.25;10206047;29;20131;-62
2022/10/26 13:11:42;;;;;;;5.80;0.90;;;;;;;21.16;60.91;100573.19;10180511;28;20126;-62
2022/10/26 13:16:45;;;;;;;5.93;1.05;;;;;;;21.25;60.73;100588.16;10209093;29;20055;-62
2022/10/26 13:21:48;;;;;;;4.35;1.50;;;;;;;21.41;60.74;100586.59;10202879;28;20060;-62
2022/10/26 13:27:06;;;;;;;4.88;1.20;;;;;;;21.54;60.09;100586.34;10214728;28;20115;-62
2022/10/26 13:32:08;;;;;;;4.57;0.93;;;;;;;21.71;60.35;100591.88;10204209;28;20047;-62
2022/10/26 13:37:23;;;;;;;5.18;1.10;;;;;;;21.76;59.82;100593.84;10208690;28;20533;-62
2022/10/26 13:42:38;;;;;;;5.97;1.10;;;;;;;21.84;59.54;100606.31;10208173;28;20075;-62
2022/10/26 13:48:06;;;;;;;5.20;1.40;;;;;;;21.72;59.70;100604.47;10204748;28;20164;-62
2022/10/26 13:53:39;;;;;;;4.30;0.95;;;;;;;21.88;59.33;100604.75;10202500;28;20075;-62
2022/10/26 13:58:54;;;;;;;8.35;1.65;;;;;;;21.94;59.08;100603.81;10207587;29;20039;-63
2022/10/26 14:03:56;;;;;;;4.85;0.90;;;;;;;22.02;58.72;100611.63;10211495;28;20047;-62
2022/10/26 14:09:11;;;;;;;4.20;0.93;;;;;;;22.02;59.22;100616.22;10215420;28;20102;-62
2022/10/26 14:14:35;;;;;;;4.28;1.10;;;;;;;21.90;58.84;100621.75;10200232;28;20410;-62
2022/10/26 14:19:39;;;;;;;4.93;1.20;;;;;;;21.96;59.08;100627.09;10215072;29;20705;-62
2022/10/26 14:24:50;;;;;;;3.83;0.90;;;;;;;22.04;58.89;100633.25;10199588;29;20066;-62
2022/10/26 14:29:53;;;;;;;7.15;0.88;;;;;;;22.09;58.81;100630.63;10209350;28;20730;-62
2022/10/26 14:35:15;;;;;;;14.32;2.63;;;;;;;22.34;58.19;100647.53;10204333;28;20133;-62
2022/10/26 14:40:22;;;;;;;5.10;0.82;;;;;;;22.40;58.28;100639.41;10204858;28;20485;-61
2022/10/26 14:45:29;;;;;;;6.38;1.05;;;;;;;22.49;57.99;100649.72;10198716;28;20071;-62
2022/10/26 14:50:58;;;;;;;4.57;1.02;;;;;;;22.24;58.20;100658.31;10214973;28;20059;-62
2022/10/26 14:56:00;;;;;;;3.55;0.93;;;;;;;22.30;58.31;100657.34;10205300;28;20107;-62
2022/10/26 15:01:20;;;;;;;5.90;1.00;;;;;;;22.46;57.73;100660.34;10209575;28;20055;-62
2022/10/26 15:06:33;;;;;;;6.65;0.90;;;;;;;22.45;57.88;100664.16;10206261;28;20048;-62
2022/10/26 15:11:40;;;;;;;3.60;0.90;;;;;;;22.51;57.99;100666.75;10214333;28;20565;-63
2022/10/26 15:16:52;;;;;;;12.35;1.73;;;;;;;22.52;57.59;100676.63;10207250;28;20083;-62
2022/10/26 15:21:54;;;;;;;10.05;1.52;;;;;;;22.29;58.71;100676.75;10209006;28;20451;-62
2022/10/26 15:26:56;;;;;;;7.95;2.92;;;;;;;22.27;58.64;100673.41;10202331;28;20096;-62
2022/10/26 15:32:02;;;;;;;4.25;1.55;;;;;;;22.18;58.58;100678.44;10202925;28;20076;-63
2022/10/26 15:37:08;;;;;;;6.68;1.75;;;;;;;22.12;58.76;100684.91;10218337;29;20055;-62
2022/10/26 15:42:13;;;;;;;7.97;1.83;;;;;;;22.01;59.10;100680.28;10222166;28;20055;-62
2022/10/26 15:47:18;;;;;;;6.03;1.30;;;;;;;21.83;59.57;100684.88;10208059;28;20094;-62
2022/10/26 15:52:19;;;;;;;7.55;1.10;;;;;;;21.68;59.98;100695.50;10210771;28;20078;-62
2022/10/26 15:57:22;;;;;;;5.57;1.58;;;;;;;21.50;60.51;100707.41;10212816;28;20055;-62
2022/10/26 16:02:23;;;;;;;8.15;1.75;;;;;;;21.27;61.11;100706.34;10214979;29;20068;-61
2022/10/26 16:07:26;;;;;;;4.65;2.28;;;;;;;21.04;61.12;100717.28;10234801;28;20208;-62
2022/10/26 16:12:27;;;;;;;5.63;1.77;;;;;;;20.84;61.61;100723.91;10209974;28;20135;-62
2022/10/26 16:17:29;;;;;;;8.13;1.40;;;;;;;20.65;62.32;100725.03;10202942;28;20059;-60
2022/10/26 16:22:30;;;;;;;6.00;2.03;;;;;;;20.45;62.84;100730.78;10214485;29;20040;-59
2022/10/26 16:27:36;;;;;;;5.73;2.27;;;;;;;20.25;63.00;100736.50;10219804;28;20047;-60
2022/10/26 16:32:38;;;;;;;7.45;2.53;;;;;;;20.04;63.61;100748.75;10210367;28;20054;-60
2022/10/26 16:37:40;;;;;;;9.73;2.40;;;;;;;19.85;63.80;100754.22;10217784;28;20142;-60
2022/10/26 16:42:43;;;;;;;8.20;3.22;;;;;;;19.66;64.30;100757.97;10217882;28;20379;-60
2022/10/26 16:47:44;;;;;;;8.65;2.22;;;;;;;19.46;64.78;100761.72;10211004;28;20095;-61
2022/10/26 16:52:46;;;;;;;12.65;3.58;;;;;;;19.29;65.31;100766.06;10206978;28;20043;-59
2022/10/26 16:57:47;;;;;;;10.35;3.33;;;;;;;19.10;65.76;100767.94;10217290;28;20054;-60
2022/10/26 17:02:49;;;;;;;8.55;2.63;;;;;;;18.97;65.81;100779.75;10216064;28;20054;-59
2022/10/26 17:07:50;;;;;;;9.65;3.30;;;;;;;18.75;66.46;100788.25;10218714;28;20056;-59
2022/10/26 17:12:54;;;;;;;5.93;2.58;;;;;;;18.61;66.92;100790.22;10211335;29;20051;-60
2022/10/26 17:17:56;;;;;;;5.72;3.40;;;;;;;18.49;66.97;100797.41;10210082;29;20475;-60
2022/10/26 17:22:57;;;;;;;7.07;3.47;;;;;;;18.37;67.17;100805.41;10210992;28;20146;-60
2022/10/26 17:27:58;;;;;;;14.25;5.10;;;;;;;18.23;67.51;100810.09;10209630;28;20415;-59
2022/10/26 17:33:00;;;;;;;9.43;4.07;;;;;;;18.08;67.91;100816.84;10213664;28;20466;-60
2022/10/26 17:38:02;;;;;;;13.20;7.00;;;;;;;17.94;68.10;100832.38;10214677;28;20081;-60
2022/10/26 17:43:03;;;;;;;11.18;5.22;;;;;;;17.81;68.46;100844.91;10207793;28;20175;-60
2022/10/26 17:48:05;;;;;;;16.30;6.03;;;;;;;17.67;68.66;100862.28;10227512;28;20139;-60
2022/10/26 17:53:06;;;;;;;11.43;7.07;;;;;;;17.56;68.81;100861.03;10204253;28;20079;-60
2022/10/26 17:58:08;;;;;;;16.02;8.50;;;;;;;17.47;69.11;100866.88;10215672;28;20146;-59
2022/10/26 18:03:09;;;;;;;25.95;14.32;;;;;;;17.37;69.26;100872.72;10214347;28;20043;-60
2022/10/26 18:08:11;;;;;;;17.85;11.05;;;;;;;17.28;69.19;100888.41;10211932;28;20110;-61
2022/10/26 18:13:12;;;;;;;13.23;8.38;;;;;;;17.15;69.36;100888.38;10206119;28;20716;-60
2022/10/26 18:18:13;;;;;;;14.88;8.32;;;;;;;17.04;69.48;100887.09;10211604;28;20142;-61
2022/10/26 18:23:15;;;;;;;11.23;4.60;;;;;;;16.96;69.74;100895.44;10210085;28;20082;-60
2022/10/26 18:28:17;;;;;;;15.77;3.83;;;;;;;16.82;69.81;100914.44;10208401;28;20524;-61
2022/10/26 18:33:18;;;;;;;8.55;4.97;;;;;;;16.72;69.66;100918.50;10207656;28;20138;-60
2022/10/26 18:38:20;;;;;;;18.13;6.28;;;;;;;16.66;69.92;100920.16;10211839;28;20048;-60
2022/10/26 18:43:21;;;;;;;15.52;7.35;;;;;;;16.57;69.81;100932.25;10213369;28;20051;-60
2022/10/26 18:48:23;;;;;;;13.35;5.72;;;;;;;16.48;69.95;100936.16;10212926;28;20052;-60
2022/10/26 18:53:24;;;;;;;14.10;6.30;;;;;;;16.38;70.11;100947.38;10206497;28;20055;-61
2022/10/26 18:58:34;;;;;;;10.93;5.68;;;;;;;16.23;70.47;100945.63;10200554;29;20050;-61
2022/10/26 19:03:37;;;;;;;18.63;6.18;;;;;;;16.16;70.46;100952.84;10209001;28;20050;-60
2022/10/26 19:08:39;;;;;;;12.25;5.38;;;;;;;16.07;70.78;100945.91;10216673;28;20054;-60
2022/10/26 19:13:41;;;;;;;17.80;6.00;;;;;;;16.01;70.63;100942.09;10200488;28;20083;-59
2022/10/26 19:18:43;;;;;;;15.13;6.57;;;;;;;15.91;70.65;100946.19;10202680;28;20751;-60
2022/10/26 19:23:47;;;;;;;24.40;9.82;;;;;;;15.81;70.95;100949.25;10207997;28;20052;-60
2022/10/26 19:28:56;;;;;;;21.63;8.35;;;;;;;15.71;71.28;100956.84;10214856;28;20135;-60
2022/10/26 19:33:59;;;;;;;13.63;7.78;;;;;;;15.63;71.33;100961.34;10197446;28;20051;-60
2022/10/26 19:39:00;;;;;;;15.75;7.20;;;;;;;15.63;71.33;100966.78;10219110;28;20146;-60
2022/10/26 19:44:03;;;;;;;14.63;6.00;;;;;;;15.59;71.56;100970.06;10209395;28;20147;-60
2022/10/26 19:49:04;;;;;;;15.43;6.13;;;;;;;15.52;71.63;100969.16;10210985;28;20087;-60
2022/10/26 19:54:06;;;;;;;15.48;6.28;;;;;;;15.46;71.68;100987.03;10201804;28;20079;-60
2022/10/26 19:59:09;;;;;;;17.45;6.78;;;;;;;15.45;71.64;100985.38;10212307;29;20058;-59
2022/10/26 20:04:12;;;;;;;20.13;7.38;;;;;;;15.39;71.90;101002.41;10205185;28;20062;-59
2022/10/26 20:09:13;;;;;;;15.25;7.32;;;;;;;15.36;71.68;101005.47;10204940;28;20127;-60
2022/10/26 20:14:15;;;;;;;16.15;6.60;;;;;;;15.32;71.73;101001.47;10204134;28;20466;-60
2022/10/26 20:19:16;;;;;;;12.30;6.05;;;;;;;15.27;71.46;101013.72;10223382;28;20055;-59
2022/10/26 20:24:18;;;;;;;12.68;6.20;;;;;;;15.20;71.72;101011.97;10200411;29;20075;-59
2022/10/26 20:29:20;;;;;;;13.43;6.45;;;;;;;15.14;71.85;101024.38;10214966;28;20148;-59
2022/10/26 20:34:22;;;;;;;15.23;6.22;;;;;;;15.02;72.08;101032.16;10213574;28;20126;-61
2022/10/26 20:39:23;;;;;;;12.25;7.00;;;;;;;14.98;72.20;101030.00;10203460;28;20063;-60
2022/10/26 20:44:30;;;;;;;19.02;7.47;;;;;;;14.93;72.20;101022.47;10204350;28;20400;-60
2022/10/26 20:49:32;;;;;;;15.50;7.47;;;;;;;14.84;72.19;101037.13;10216046;29;20134;-60
2022/10/26 20:54:44;;;;;;;14.48;6.22;;;;;;;14.78;72.06;101033.28;10213536;28;20298;-60
2022/10/26 20:59:50;;;;;;;15.63;7.82;;;;;;;14.78;72.28;101037.88;10201135;28;20126;-60
2022/10/26 21:04:52;;;;;;;17.20;7.70;;;;;;;14.73;72.42;101030.31;10208281;29;20049;-61
2022/10/26 21:09:53;;;;;;;16.95;7.22;;;;;;;14.66;72.79;101040.19;10201984;28;20055;-60
2022/10/26 21:14:55;;;;;;;12.48;6.82;;;;;;;14.68;72.57;101059.78;10213644;28;20742;-61
2022/10/26 21:19:56;;;;;;;15.98;7.43;;;;;;;14.56;72.67;101058.53;10200075;29;20055;-61
2022/10/26 21:24:58;;;;;;;11.85;6.72;;;;;;;14.53;72.44;101058.91;10214870;28;20040;-60
2022/10/26 21:29:59;;;;;;;14.95;7.30;;;;;;;14.50;72.24;101065.53;10199122;28;20047;-61
2022/10/26 21:35:00;;;;;;;17.08;8.70;;;;;;;14.38;72.37;101065.13;10212599;29;20137;-60
2022/10/26 21:40:02;;;;;;;10.82;7.28;;;;;;;14.20;72.93;101060.06;10206265;28;20513;-60
2022/10/26 21:45:04;;;;;;;12.18;6.05;;;;;;;14.22;72.91;101066.13;10218575;28;20055;-60
2022/10/26 21:50:06;;;;;;;13.93;6.45;;;;;;;14.21;72.68;101069.84;10225085;28;20469;-60
2022/10/26 21:55:08;;;;;;;16.02;8.00;;;;;;;14.17;72.66;101073.09;10201510;28;20410;-61
2022/10/26 22:00:10;;;;;;;9.93;5.40;;;;;;;14.14;72.63;101073.44;10202916;28;20055;-61
2022/10/26 22:05:11;;;;;;;12.52;6.03;;;;;;;14.08;72.60;101075.88;10208989;28;20122;-60
2022/10/26 22:10:12;;;;;;;9.68;5.38;;;;;;;13.99;72.70;101074.25;10210345;28;20134;-61
2022/10/26 22:15:15;;;;;;;7.50;4.63;;;;;;;13.95;72.67;101064.81;10204298;28;20126;-61
2022/10/26 22:20:17;;;;;;;10.35;4.72;;;;;;;13.92;72.77;101062.50;10203591;28;20138;-60
2022/10/26 22:25:18;;;;;;;11.35;4.97;;;;;;;13.87;73.01;101073.00;10210338;28;20040;-60
2022/10/26 22:30:19;;;;;;;15.32;4.75;;;;;;;13.83;73.19;101074.38;10206133;28;20051;-60
2022/10/26 22:35:21;;;;;;;12.55;5.68;;;;;;;13.82;72.92;101081.66;10212386;29;20111;-60
2022/10/26 22:40:29;;;;;;;10.13;5.68;;;;;;;13.77;72.82;101086.72;10204887;28;20107;-62
2022/10/26 22:45:31;;;;;;;10.57;5.05;;;;;;;13.72;73.13;101082.88;10199966;28;20063;-62
2022/10/26 22:50:32;;;;;;;16.58;8.68;;;;;;;13.64;72.86;101087.31;10198598;28;20051;-61
2022/10/26 22:55:34;;;;;;;16.25;7.38;;;;;;;13.48;73.18;101082.00;10212742;28;20429;-61
2022/10/26 23:00:36;;;;;;;9.57;5.25;;;;;;;13.50;73.17;101090.78;10207584;28;20045;-61
2022/10/26 23:05:44;;;;;;;9.68;5.70;;;;;;;13.51;72.99;101099.69;10215967;28;20134;-61
2022/10/26 23:10:45;;;;;;;14.50;5.95;;;;;;;13.52;73.24;101106.81;10206600;29;20778;-61
2022/10/26 23:15:47;;;;;;;12.55;6.88;;;;;;;13.33;73.37;101105.38;10212263;28;20159;-62
2022/10/26 23:20:49;;;;;;;12.82;5.65;;;;;;;13.37;73.38;101104.84;10206654;29;20082;-61
2022/10/26 23:25:51;;;;;;;10.52;5.35;;;;;;;13.40;73.36;101119.84;10216972;28;20047;-61